createdAt,value
2019-04-14T00:00:47.439Z,49.80
2019-04-14T00:03:33.254Z,49.00
2019-04-14T00:12:27.294Z,47.55
2019-04-14T00:18:11.838Z,46.23
2019-04-14T00:21:00.819Z,45.88
2019-04-14T00:23:50.098Z,49.35
2019-04-14T00:26:38.538Z,47.98
2019-04-14T00:29:26.631Z,46.20
2019-04-14T00:32:14.731Z,47.93
2019-04-14T00:35:21.663Z,52.48
2019-04-14T00:38:28.831Z,47.13
2019-04-14T00:41:43.880Z,46.15
2019-04-14T00:44:45.279Z,50.75
2019-04-14T00:50:29.857Z,48.70
2019-04-14T00:53:18.511Z,47.98
2019-04-14T00:56:08.277Z,50.33
2019-04-14T00:58:56.799Z,47.67
2019-04-14T01:01:45.703Z,46.55
2019-04-14T01:04:27.306Z,44.42
2019-04-14T01:07:08.745Z,46.05
2019-04-14T01:09:49.491Z,50.08
2019-04-14T01:12:30.291Z,49.60
2019-04-14T01:15:11.526Z,50.45
2019-04-14T01:17:52.879Z,49.15
2019-04-14T01:20:33.977Z,49.15
2019-04-14T01:23:15.122Z,47.95
2019-04-14T01:25:56.491Z,47.40
2019-04-14T01:28:37.544Z,48.75
2019-04-14T01:31:18.596Z,47.70
2019-04-14T01:33:59.789Z,49.50
2019-04-14T01:39:28.535Z,54.18
2019-04-14T01:42:09.791Z,47.53
2019-04-14T01:44:50.325Z,50.65
2019-04-14T01:47:31.362Z,54.67
2019-04-14T01:50:12.706Z,54.05
2019-04-14T01:53:13.917Z,53.48
2019-04-14T01:58:49.622Z,54.38
2019-04-14T02:01:32.462Z,57.60
2019-04-14T02:04:13.850Z,55.25
2019-04-14T02:09:36.319Z,55.58
2019-04-14T02:15:03.287Z,56.77
2019-04-14T02:17:48.039Z,60.92
2019-04-14T02:23:14.741Z,56.33
2019-04-14T02:28:37.975Z,57.55
2019-04-14T02:45:35.476Z,59.23
2019-04-14T02:48:33.342Z,63.35
2019-04-14T02:50:59.630Z,63.87
2019-04-14T03:02:19.678Z,60.15
2019-04-14T03:04:43.197Z,60.00
2019-04-14T03:10:01.277Z,64.53
2019-04-14T03:12:52.157Z,56.85
2019-04-14T03:15:43.211Z,61.65
2019-04-14T03:18:37.867Z,57.55
2019-04-14T03:21:55.525Z,60.90
2019-04-14T03:24:33.916Z,64.42
2019-04-14T03:27:31.178Z,59.88
2019-04-14T03:30:45.885Z,60.73
2019-04-14T03:33:36.164Z,63.23
2019-04-14T03:36:06.321Z,62.62
2019-04-14T03:38:24.650Z,60.60
2019-04-14T03:43:41.642Z,59.55
2019-04-14T03:46:34.763Z,64.40
2019-04-14T03:49:32.100Z,59.25
2019-04-14T03:54:33.345Z,57.55
2019-04-14T03:56:57.554Z,56.68
2019-04-14T03:59:39.200Z,61.63
2019-04-14T04:02:20.486Z,57.73
2019-04-14T04:05:02.219Z,59.77
2019-04-14T04:07:43.415Z,58.35
2019-04-14T04:10:24.682Z,58.05
2019-04-14T04:13:06.268Z,59.30
2019-04-14T04:15:47.641Z,64.20
2019-04-14T04:18:28.963Z,57.93
2019-04-14T04:21:20.590Z,68.57
2019-04-14T04:27:33.399Z,61.33
2019-04-14T04:33:39.377Z,59.60
2019-04-14T04:36:27.030Z,59.83
2019-04-14T04:39:26.515Z,51.80
2019-04-14T04:42:08.998Z,55.23
2019-04-14T04:44:51.000Z,53.83
2019-04-14T04:47:31.770Z,55.17
2019-04-14T04:50:13.030Z,52.20
2019-04-14T04:52:54.025Z,48.52
2019-04-14T04:55:35.279Z,51.48
2019-04-14T04:58:15.811Z,50.15
2019-04-14T05:00:57.657Z,53.25
2019-04-14T05:06:35.178Z,50.83
2019-04-14T05:09:21.027Z,53.17
2019-04-14T05:15:18.732Z,52.62
2019-04-14T05:18:00.451Z,51.83
2019-04-14T05:20:42.004Z,49.30
2019-04-14T05:23:23.463Z,53.50
2019-04-14T05:26:04.857Z,48.75
2019-04-14T05:28:46.007Z,49.55
2019-04-14T05:31:28.756Z,48.87
2019-04-14T05:34:09.155Z,47.53
2019-04-14T05:36:50.002Z,45.95
2019-04-14T05:39:31.279Z,53.80
2019-04-14T05:42:17.773Z,55.33
2019-04-14T05:44:55.829Z,54.75
2019-04-14T05:47:37.102Z,47.48
2019-04-14T05:50:21.060Z,48.95
2019-04-14T05:55:50.425Z,47.53
2019-04-14T05:58:31.799Z,48.98
2019-04-14T06:01:13.822Z,49.73
2019-04-14T06:03:54.658Z,48.13
2019-04-14T06:06:35.428Z,45.83
2019-04-14T06:09:17.458Z,45.63
2019-04-14T06:11:57.831Z,44.18
2019-04-14T06:14:38.407Z,44.08
2019-04-14T06:17:19.174Z,43.98
2019-04-14T06:19:59.735Z,47.65
2019-04-14T06:22:40.283Z,44.60
2019-04-14T06:25:24.129Z,43.48
2019-04-14T06:30:50.324Z,43.15
2019-04-14T06:53:02.854Z,44.35
2019-04-14T06:55:43.616Z,40.05
2019-04-14T06:58:24.634Z,38.95
2019-04-14T07:03:58.371Z,42.17
2019-04-14T07:06:39.065Z,37.33
2019-04-14T07:09:20.080Z,42.30
2019-04-14T07:12:00.642Z,39.33
2019-04-14T07:14:41.218Z,35.10
2019-04-14T07:17:22.171Z,34.45
2019-04-14T07:20:02.950Z,31.55
2019-04-14T07:22:43.872Z,33.70
2019-04-14T07:25:24.144Z,35.17
2019-04-14T07:28:05.152Z,34.33
2019-04-14T07:37:14.178Z,27.35
2019-04-14T07:39:57.815Z,35.45
2019-04-14T07:43:03.623Z,34.88
2019-04-14T07:45:51.618Z,29.37
2019-04-14T07:51:46.471Z,26.07
2019-04-14T07:54:41.430Z,27.73
2019-04-14T07:57:45.490Z,26.57
2019-04-14T08:00:45.606Z,27.98
2019-04-14T08:03:33.707Z,26.90
2019-04-14T08:06:13.983Z,29.23
2019-04-14T08:08:54.675Z,27.80
2019-04-14T08:11:35.131Z,29.95
2019-04-14T08:14:15.765Z,25.85
2019-04-14T08:16:56.294Z,24.98
2019-04-14T08:19:36.905Z,26.15
2019-04-14T08:22:17.313Z,23.95
2019-04-14T08:24:58.379Z,26.10
2019-04-14T08:48:05.815Z,27.00
2019-04-14T08:50:52.679Z,23.50
2019-04-14T08:53:42.174Z,24.98
2019-04-14T08:56:34.303Z,23.35
2019-04-14T08:59:34.481Z,26.87
2019-04-14T09:02:25.535Z,26.30
2019-04-14T09:05:11.863Z,24.50
2019-04-14T09:07:58.782Z,24.82
2019-04-14T09:10:41.952Z,22.27
2019-04-14T09:13:22.471Z,25.35
2019-04-14T09:16:02.799Z,23.00
2019-04-14T09:18:43.427Z,22.02
2019-04-14T09:21:23.691Z,22.95
2019-04-14T09:24:04.435Z,21.82
2019-04-14T09:26:44.892Z,21.23
2019-04-14T09:29:25.477Z,22.30
2019-04-14T09:32:07.803Z,20.20
2019-04-14T09:34:48.155Z,19.98
2019-04-14T09:37:28.758Z,19.87
2019-04-14T09:40:09.259Z,20.35
2019-04-14T09:42:49.726Z,20.00
2019-04-14T09:45:30.419Z,18.17
2019-04-14T09:48:11.020Z,18.12
2019-04-14T09:51:03.872Z,21.65
2019-04-14T09:56:22.008Z,17.82
2019-04-14T10:01:46.242Z,21.80
2019-04-14T10:12:51.448Z,19.92
2019-04-14T10:15:31.915Z,17.52
2019-04-14T10:21:01.926Z,17.07
2019-04-14T10:46:17.980Z,18.30
2019-04-14T10:48:58.777Z,17.67
2019-04-14T10:51:39.071Z,16.05
2019-04-14T10:54:19.787Z,15.40
2019-04-14T10:57:01.186Z,16.87
2019-04-14T10:59:42.374Z,16.57
2019-04-14T11:02:23.415Z,17.77
2019-04-14T11:05:03.707Z,15.70
2019-04-14T11:07:44.662Z,16.52
2019-04-14T11:10:25.811Z,19.85
2019-04-14T11:13:06.523Z,16.73
2019-04-14T11:15:47.489Z,16.07
2019-04-14T11:18:28.039Z,19.40
2019-04-14T11:21:09.151Z,18.87
2019-04-14T11:23:50.016Z,18.10
2019-04-14T11:26:30.984Z,16.97
2019-04-14T11:29:11.739Z,16.10
2019-04-14T11:32:11.534Z,15.10
2019-04-14T11:34:57.271Z,17.48
2019-04-14T11:37:49.890Z,13.93
2019-04-14T11:40:34.764Z,20.12
2019-04-14T11:43:15.887Z,15.08
2019-04-14T11:45:56.627Z,15.85
2019-04-14T11:48:37.496Z,19.57
2019-04-14T11:51:18.459Z,16.57
2019-04-14T11:53:59.032Z,20.97
2019-04-14T11:56:39.719Z,16.12
2019-04-14T11:59:26.543Z,13.88
2019-04-14T12:05:24.483Z,25.40
2019-04-14T12:08:24.307Z,21.23
2019-04-14T12:11:05.474Z,21.02
2019-04-14T12:13:46.239Z,19.32
2019-04-14T12:16:26.847Z,15.72
2019-04-14T12:19:07.547Z,14.03
2019-04-14T12:21:47.928Z,15.70
2019-04-14T12:24:28.340Z,14.03
2019-04-14T12:27:09.409Z,19.23
2019-04-14T12:29:50.081Z,14.58
2019-04-14T12:32:31.231Z,15.32
2019-04-14T12:35:11.935Z,13.75
2019-04-14T12:37:52.877Z,13.72
2019-04-14T12:40:33.199Z,17.50
2019-04-14T12:43:32.572Z,14.18
2019-04-14T12:46:13.023Z,21.42
2019-04-14T12:49:02.311Z,18.27
2019-04-14T12:52:01.994Z,16.77
2019-04-14T13:00:40.455Z,14.03
2019-04-14T13:03:21.763Z,16.27
2019-04-14T13:06:02.301Z,15.45
2019-04-14T13:08:43.015Z,13.70
2019-04-14T13:11:23.883Z,17.62
2019-04-14T13:14:04.519Z,16.02
2019-04-14T13:16:45.351Z,16.27
2019-04-14T13:19:26.155Z,17.32
2019-04-14T13:22:06.790Z,14.45
2019-04-14T13:24:47.477Z,17.48
2019-04-14T13:27:28.562Z,20.48
2019-04-14T13:30:11.178Z,17.57
2019-04-14T13:32:52.168Z,16.82
2019-04-14T13:35:32.752Z,20.50
2019-04-14T13:38:13.732Z,19.35
2019-04-14T13:40:54.186Z,14.90
2019-04-14T13:43:35.196Z,15.28
2019-04-14T13:49:00.745Z,15.50
2019-04-14T13:51:41.131Z,14.90
2019-04-14T13:54:21.832Z,15.08
2019-04-14T13:57:02.424Z,14.63
2019-04-14T14:02:25.053Z,15.72
2019-04-14T14:07:49.259Z,15.38
2019-04-14T14:13:15.564Z,13.68
2019-04-14T14:38:04.643Z,13.62
2019-04-14T14:49:15.047Z,11.05
2019-04-14T14:54:41.988Z,12.23
2019-04-14T14:57:22.194Z,10.72
2019-04-14T15:00:03.087Z,10.93
2019-04-14T15:05:26.078Z,9.35
2019-04-14T15:08:06.823Z,13.13
2019-04-14T15:10:47.580Z,10.25
2019-04-14T15:13:28.558Z,10.72
2019-04-14T15:16:08.996Z,44.23
2019-04-14T15:18:49.835Z,60.98
2019-04-14T15:21:30.167Z,14.93
2019-04-14T15:24:10.835Z,13.80
2019-04-14T15:26:51.244Z,10.98
2019-04-14T15:29:32.063Z,10.50
2019-04-14T15:32:12.602Z,10.98
2019-04-14T15:34:53.575Z,9.35
2019-04-14T15:37:34.103Z,9.28
2019-04-14T15:40:14.661Z,9.30
2019-04-14T15:42:55.420Z,10.85
2019-04-14T15:45:36.002Z,10.23
2019-04-14T15:48:16.748Z,9.43
2019-04-14T15:50:57.283Z,11.55
2019-04-14T15:53:38.558Z,8.98
2019-04-14T15:56:38.555Z,9.58
2019-04-14T15:59:44.920Z,11.50
2019-04-14T16:06:01.412Z,10.75
2019-04-14T16:08:49.342Z,9.00
2019-04-14T16:11:43.509Z,11.20
2019-04-14T16:14:49.316Z,9.70
2019-04-14T16:17:41.027Z,11.33
2019-04-14T16:20:25.727Z,9.15
2019-04-14T16:23:06.545Z,12.15
2019-04-14T16:26:06.098Z,12.15
2019-04-14T16:32:14.019Z,12.28
2019-04-14T16:34:57.526Z,12.85
2019-04-14T16:37:38.063Z,12.47
2019-04-14T16:40:18.791Z,11.05
2019-04-14T16:42:59.100Z,9.75
2019-04-14T16:45:39.663Z,11.22
2019-04-14T16:48:19.969Z,11.00
2019-04-14T16:51:00.606Z,10.65
2019-04-14T16:53:42.471Z,11.60
2019-04-14T16:56:41.856Z,11.15
2019-04-14T16:59:22.572Z,11.30
2019-04-14T17:02:10.834Z,11.22
2019-04-14T17:04:45.671Z,12.25
2019-04-14T17:07:26.653Z,10.15
2019-04-14T17:10:07.267Z,13.83
2019-04-14T17:12:47.867Z,9.15
2019-04-14T17:18:59.281Z,11.10
2019-04-14T17:21:59.515Z,12.35
2019-04-14T17:25:04.996Z,12.90
2019-04-14T17:28:07.983Z,12.78
2019-04-14T17:30:56.866Z,13.60
2019-04-14T17:36:44.583Z,9.98
2019-04-14T17:42:30.446Z,9.48
2019-04-14T17:48:42.647Z,9.68
2019-04-14T17:51:28.019Z,11.05
2019-04-14T17:54:09.010Z,10.40
2019-04-14T17:59:43.431Z,10.78
2019-04-14T18:02:31.172Z,9.83
2019-04-14T18:07:57.599Z,9.28
2019-04-14T18:13:27.799Z,8.85
2019-04-14T18:18:57.442Z,9.75
2019-04-14T18:32:48.972Z,7.90
2019-04-14T18:35:46.575Z,9.05
2019-04-14T18:47:05.311Z,8.35
2019-04-14T19:01:19.738Z,7.30
2019-04-14T19:09:46.482Z,6.58
2019-04-14T19:12:46.180Z,6.67
2019-04-14T19:18:34.192Z,8.40
2019-04-14T19:21:17.046Z,8.68
2019-04-14T19:23:57.826Z,10.80
2019-04-14T19:26:38.555Z,7.90
2019-04-14T19:29:19.279Z,7.72
2019-04-14T19:32:00.406Z,6.28
2019-04-14T19:34:40.847Z,4.87
2019-04-14T19:37:21.783Z,4.97
2019-04-14T19:40:02.227Z,4.67
2019-04-14T19:42:42.971Z,5.10
2019-04-14T19:45:23.652Z,5.45
2019-04-14T19:48:04.347Z,4.25
2019-04-14T19:50:45.299Z,4.30
2019-04-14T19:53:25.745Z,4.08
2019-04-14T19:56:07.063Z,4.05
2019-04-14T19:58:48.022Z,4.42
2019-04-14T20:01:28.672Z,4.10
2019-04-14T20:04:09.067Z,4.17
2019-04-14T20:06:49.827Z,4.08
2019-04-14T20:09:30.889Z,3.60
2019-04-14T20:12:12.047Z,3.80
2019-04-14T20:14:52.290Z,3.83
2019-04-14T20:20:54.532Z,3.55
2019-04-14T20:23:39.991Z,3.87
2019-04-14T20:26:23.957Z,3.52
2019-04-14T20:29:12.936Z,3.40
2019-04-14T20:35:11.583Z,3.35
2019-04-14T20:37:59.513Z,3.67
2019-04-14T20:40:47.703Z,4.00
2019-04-14T20:43:37.651Z,3.67
2019-04-14T20:46:25.491Z,3.83
2019-04-14T20:49:13.351Z,5.28
2019-04-14T20:52:01.207Z,3.58
2019-04-14T20:54:49.048Z,3.95
2019-04-14T20:57:37.139Z,4.15
2019-04-14T21:03:51.651Z,3.40
2019-04-14T21:10:05.899Z,4.12
2019-04-14T21:13:05.330Z,4.00
2019-04-14T21:15:49.614Z,5.25
2019-04-14T21:18:55.526Z,3.85
2019-04-14T21:21:47.912Z,3.67
2019-04-14T21:24:33.462Z,4.05
2019-04-14T21:27:33.607Z,4.10
2019-04-14T21:36:29.721Z,4.15
2019-04-14T21:39:30.035Z,4.87
2019-04-14T21:42:11.203Z,4.25
2019-04-14T21:44:52.015Z,4.67
2019-04-14T21:47:32.890Z,4.17
2019-04-14T21:50:13.407Z,4.62
2019-04-14T21:52:54.448Z,5.85
2019-04-14T21:55:35.607Z,4.80
2019-04-14T22:01:02.659Z,4.67
2019-04-14T22:03:44.874Z,4.67
2019-04-14T22:12:02.256Z,5.28
2019-04-14T22:14:45.756Z,6.42
2019-04-14T22:20:15.071Z,6.20
2019-04-14T22:22:56.242Z,5.12
2019-04-14T22:25:37.724Z,6.75
2019-04-14T22:50:31.879Z,6.17
2019-04-14T22:53:12.654Z,6.47
2019-04-14T22:55:53.439Z,6.40
2019-04-14T22:58:34.079Z,6.85
2019-04-14T23:01:33.971Z,7.08
2019-04-14T23:07:45.416Z,5.55
2019-04-14T23:10:48.643Z,7.05
2019-04-14T23:13:35.774Z,6.10
2019-04-14T23:19:24.515Z,6.28
2019-04-14T23:22:24.237Z,8.18
2019-04-14T23:25:04.726Z,5.65
2019-04-14T23:27:45.292Z,8.65
2019-04-14T23:30:26.103Z,6.03
2019-04-14T23:33:06.631Z,7.35
2019-04-14T23:35:47.347Z,6.90
2019-04-14T23:38:27.939Z,6.97
2019-04-14T23:41:09.028Z,7.17
2019-04-14T23:43:49.684Z,7.33
2019-04-14T23:46:30.324Z,7.40
2019-04-14T23:49:13.843Z,7.12
2019-04-14T23:51:54.635Z,10.75
2019-04-14T23:54:35.063Z,9.53
2019-04-14T23:57:15.711Z,10.75
2019-04-14T23:59:56.383Z,8.78
